createdAt,value
2017-09-07T00:00:36.723Z,8.00
2017-09-07T00:01:36.673Z,7.20
2017-09-07T00:02:36.644Z,8.00
2017-09-07T00:03:36.618Z,6.60
2017-09-07T00:04:36.578Z,8.10
2017-09-07T00:05:36.555Z,7.80
2017-09-07T00:06:36.508Z,8.50
2017-09-07T00:07:36.473Z,6.40
2017-09-07T00:08:36.439Z,7.00
2017-09-07T00:09:36.403Z,7.20
2017-09-07T00:10:36.370Z,5.80
2017-09-07T00:11:36.330Z,7.80
2017-09-07T00:12:36.299Z,7.60
2017-09-07T00:13:36.262Z,6.50
2017-09-07T00:14:36.228Z,8.40
2017-09-07T00:15:36.208Z,7.00
2017-09-07T00:16:36.168Z,9.30
2017-09-07T00:17:36.126Z,5.80
2017-09-07T00:18:36.096Z,5.70
2017-09-07T00:19:36.058Z,8.20
2017-09-07T00:20:36.020Z,5.40
2017-09-07T00:21:35.993Z,8.40
2017-09-07T00:22:35.961Z,6.30
2017-09-07T00:23:35.920Z,7.10
2017-09-07T00:24:36.003Z,6.80
2017-09-07T00:25:35.856Z,5.40
2017-09-07T00:26:35.825Z,6.10
2017-09-07T00:27:35.796Z,6.60
2017-09-07T00:28:35.751Z,5.70
2017-09-07T00:29:35.715Z,10.10
2017-09-07T00:30:35.683Z,5.70
2017-09-07T00:31:35.644Z,7.40
2017-09-07T00:32:35.610Z,9.00
2017-09-07T00:33:35.571Z,7.00
2017-09-07T00:34:35.544Z,6.20
2017-09-07T00:35:35.518Z,6.30
2017-09-07T00:36:35.471Z,10.00
2017-09-07T00:37:35.436Z,8.70
2017-09-07T00:38:35.412Z,6.20
2017-09-07T00:39:35.373Z,10.90
2017-09-07T00:40:35.342Z,7.30
2017-09-07T00:41:35.409Z,6.40
2017-09-07T00:42:35.269Z,8.40
2017-09-07T00:43:35.229Z,7.40
2017-09-07T00:44:35.260Z,6.80
2017-09-07T00:45:35.162Z,10.40
2017-09-07T00:46:35.131Z,7.00
2017-09-07T00:47:35.094Z,7.80
2017-09-07T00:48:35.063Z,8.60
2017-09-07T00:49:35.025Z,8.20
2017-09-07T00:50:34.992Z,7.80
2017-09-07T00:51:34.959Z,7.00
2017-09-07T00:52:34.930Z,10.30
2017-09-07T00:53:34.899Z,8.90
2017-09-07T00:54:34.858Z,8.20
2017-09-07T00:55:34.845Z,9.70
2017-09-07T00:56:34.782Z,6.90
2017-09-07T00:57:34.753Z,8.60
2017-09-07T00:58:34.715Z,8.50
2017-09-07T00:59:34.684Z,7.60
2017-09-07T01:00:34.651Z,9.30
2017-09-07T01:01:34.614Z,7.30
2017-09-07T01:02:34.581Z,9.60
2017-09-07T01:03:34.538Z,9.60
2017-09-07T01:04:34.508Z,7.20
2017-09-07T01:05:34.473Z,7.40
2017-09-07T01:06:34.446Z,10.00
2017-09-07T01:07:34.404Z,8.90
2017-09-07T01:08:34.372Z,5.30
2017-09-07T01:09:34.332Z,6.80
2017-09-07T01:10:34.308Z,8.40
2017-09-07T01:11:34.269Z,7.60
2017-09-07T01:12:34.231Z,6.90
2017-09-07T01:13:34.191Z,9.70
2017-09-07T01:14:34.163Z,8.70
2017-09-07T01:15:34.129Z,6.50
2017-09-07T01:16:34.091Z,5.00
2017-09-07T01:17:34.057Z,9.10
2017-09-07T01:18:34.021Z,5.90
2017-09-07T01:19:33.987Z,9.50
2017-09-07T01:20:33.952Z,8.40
2017-09-07T01:21:33.926Z,10.60
2017-09-07T01:22:33.890Z,11.50
2017-09-07T01:23:33.849Z,6.70
2017-09-07T01:24:33.815Z,9.50
2017-09-07T01:25:33.775Z,9.90
2017-09-07T01:26:33.744Z,10.80
2017-09-07T01:27:33.721Z,9.60
2017-09-07T01:28:33.675Z,8.30
2017-09-07T01:29:33.642Z,9.10
2017-09-07T01:30:33.602Z,10.20
2017-09-07T01:31:33.577Z,7.40
2017-09-07T01:32:33.535Z,8.70
2017-09-07T01:33:33.508Z,7.70
2017-09-07T01:34:33.476Z,7.10
2017-09-07T01:35:33.434Z,8.60
2017-09-07T01:36:33.396Z,9.20
2017-09-07T01:37:33.363Z,10.90
2017-09-07T01:38:33.332Z,9.80
2017-09-07T01:39:33.294Z,9.60
2017-09-07T01:40:33.267Z,9.50
2017-09-07T01:41:33.232Z,7.80
2017-09-07T01:42:33.191Z,8.10
2017-09-07T01:43:33.158Z,9.60
2017-09-07T01:44:33.121Z,10.20
2017-09-07T01:45:33.083Z,10.00
2017-09-07T01:46:33.048Z,6.70
2017-09-07T01:47:33.014Z,9.20
2017-09-07T01:48:32.988Z,11.10
2017-09-07T01:49:32.943Z,10.70
2017-09-07T01:50:32.915Z,9.90
2017-09-07T01:51:32.871Z,11.40
2017-09-07T01:52:32.845Z,11.60
2017-09-07T01:53:32.808Z,11.50
2017-09-07T01:54:32.771Z,9.80
2017-09-07T01:55:32.738Z,11.10
2017-09-07T01:56:32.700Z,13.00
2017-09-07T01:57:32.668Z,8.10
2017-09-07T01:58:32.633Z,10.70
2017-09-07T01:59:32.597Z,15.30
2017-09-07T02:00:32.563Z,11.50
2017-09-07T02:01:32.526Z,12.90
2017-09-07T02:02:32.491Z,9.50
2017-09-07T02:03:32.468Z,8.70
2017-09-07T02:04:32.426Z,12.10
2017-09-07T02:05:32.392Z,9.50
2017-09-07T02:06:32.352Z,11.50
2017-09-07T02:07:32.321Z,13.30
2017-09-07T02:08:32.284Z,10.00
2017-09-07T02:09:32.276Z,11.80
2017-09-07T02:10:32.215Z,8.60
2017-09-07T02:11:32.178Z,12.00
2017-09-07T02:12:32.145Z,9.50
2017-09-07T02:13:32.112Z,14.90
2017-09-07T02:14:32.079Z,13.30
2017-09-07T02:15:32.034Z,11.80
2017-09-07T02:16:32.003Z,11.10
2017-09-07T02:17:31.965Z,14.90
2017-09-07T02:18:31.930Z,11.50
2017-09-07T02:19:31.900Z,13.20
2017-09-07T02:20:31.866Z,11.40
2017-09-07T02:21:31.829Z,13.20
2017-09-07T02:22:31.793Z,11.80
2017-09-07T02:23:31.775Z,11.30
2017-09-07T02:24:31.726Z,9.80
2017-09-07T02:25:31.688Z,15.60
2017-09-07T02:26:31.653Z,10.70
2017-09-07T02:27:31.614Z,14.30
2017-09-07T02:28:31.585Z,13.70
2017-09-07T02:29:31.557Z,14.30
2017-09-07T02:30:31.510Z,10.10
2017-09-07T02:31:31.475Z,12.60
2017-09-07T02:32:31.439Z,16.70
2017-09-07T02:33:31.405Z,10.70
2017-09-07T02:34:31.367Z,16.30
2017-09-07T02:35:31.333Z,9.60
2017-09-07T02:36:31.304Z,18.10
2017-09-07T02:37:31.262Z,12.10
2017-09-07T02:38:31.335Z,11.80
2017-09-07T02:39:31.197Z,12.80
2017-09-07T02:40:31.161Z,12.60
2017-09-07T02:41:31.119Z,14.40
2017-09-07T02:42:31.094Z,13.70
2017-09-07T02:43:31.051Z,11.80
2017-09-07T02:44:31.019Z,13.50
2017-09-07T02:45:30.983Z,12.70
2017-09-07T02:46:30.948Z,14.00
2017-09-07T02:47:30.917Z,14.40
2017-09-07T02:48:30.892Z,16.10
2017-09-07T02:49:30.846Z,15.90
2017-09-07T02:50:30.815Z,9.50
2017-09-07T02:51:30.772Z,12.40
2017-09-07T02:52:30.738Z,14.40
2017-09-07T02:53:30.702Z,11.90
2017-09-07T02:54:30.670Z,13.90
2017-09-07T02:55:30.630Z,9.80
2017-09-07T02:56:30.598Z,13.70
2017-09-07T02:57:30.565Z,16.90
2017-09-07T02:58:30.528Z,12.90
2017-09-07T02:59:30.495Z,13.70
2017-09-07T03:00:30.454Z,14.60
2017-09-07T03:01:30.431Z,17.20
2017-09-07T03:02:30.385Z,16.10
2017-09-07T03:03:30.351Z,15.40
2017-09-07T03:04:30.328Z,15.40
2017-09-07T03:05:30.286Z,14.00
2017-09-07T03:06:30.241Z,12.20
2017-09-07T03:07:30.212Z,13.90
2017-09-07T03:08:30.173Z,16.40
2017-09-07T03:09:30.136Z,17.80
2017-09-07T03:10:30.103Z,12.90
2017-09-07T03:11:30.071Z,13.20
2017-09-07T03:12:30.033Z,19.20
2017-09-07T03:13:29.997Z,18.50
2017-09-07T03:14:29.965Z,16.20
2017-09-07T03:15:29.928Z,15.20
2017-09-07T03:16:29.890Z,12.10
2017-09-07T03:17:29.855Z,13.60
2017-09-07T03:18:29.821Z,15.20
2017-09-07T03:19:29.789Z,14.80
2017-09-07T03:20:29.753Z,13.50
2017-09-07T03:21:29.714Z,16.00
2017-09-07T03:22:29.680Z,15.90
2017-09-07T03:23:29.647Z,15.10
2017-09-07T03:24:29.608Z,13.80
2017-09-07T03:25:29.572Z,15.60
2017-09-07T03:26:29.534Z,13.40
2017-09-07T03:27:29.502Z,14.50
2017-09-07T03:28:29.474Z,16.10
2017-09-07T03:29:29.449Z,11.90
2017-09-07T03:30:29.401Z,14.80
2017-09-07T03:31:29.358Z,13.40
2017-09-07T03:32:29.329Z,16.20
2017-09-07T03:33:29.294Z,14.50
2017-09-07T03:34:29.255Z,14.20
2017-09-07T03:35:29.222Z,15.20
2017-09-07T03:36:29.188Z,14.30
2017-09-07T03:37:29.153Z,16.10
2017-09-07T03:38:29.129Z,13.00
2017-09-07T03:39:29.088Z,15.90
2017-09-07T03:40:29.043Z,13.40
2017-09-07T03:41:29.007Z,16.20
2017-09-07T03:42:28.973Z,13.70
2017-09-07T03:43:28.939Z,17.80
2017-09-07T03:44:28.903Z,15.40
2017-09-07T03:45:28.893Z,15.70
2017-09-07T03:46:28.833Z,11.90
2017-09-07T03:47:28.794Z,13.70
2017-09-07T03:48:28.764Z,19.90
2017-09-07T03:49:28.734Z,17.00
2017-09-07T03:50:28.690Z,11.50
2017-09-07T03:51:28.652Z,14.30
2017-09-07T03:52:28.631Z,12.50
2017-09-07T03:53:28.583Z,21.40
2017-09-07T03:54:28.549Z,16.00
2017-09-07T03:55:28.528Z,17.80
2017-09-07T03:56:28.478Z,12.10
2017-09-07T03:57:28.440Z,19.00
2017-09-07T03:58:28.407Z,14.60
2017-09-07T03:59:28.368Z,14.10
2017-09-07T04:00:28.333Z,15.30
2017-09-07T04:01:28.304Z,15.30
2017-09-07T04:02:28.261Z,17.10
2017-09-07T04:03:28.246Z,17.60
2017-09-07T04:04:28.203Z,15.70
2017-09-07T04:05:28.154Z,14.60
2017-09-07T04:06:28.123Z,12.90
2017-09-07T04:07:28.095Z,18.50
2017-09-07T04:08:28.049Z,18.70
2017-09-07T04:09:28.018Z,16.90
2017-09-07T04:10:27.979Z,17.60
2017-09-07T04:11:27.939Z,13.90
2017-09-07T04:12:27.909Z,12.70
2017-09-07T04:13:27.868Z,18.90
2017-09-07T04:14:27.838Z,14.50
2017-09-07T04:15:27.803Z,14.10
2017-09-07T04:16:27.766Z,17.10
2017-09-07T04:17:27.740Z,17.40
2017-09-07T04:18:27.697Z,17.30
2017-09-07T04:19:27.663Z,13.80
2017-09-07T04:20:27.630Z,17.60
2017-09-07T04:21:27.589Z,16.00
2017-09-07T04:22:27.560Z,14.40
2017-09-07T04:23:27.522Z,17.10
2017-09-07T04:24:27.482Z,15.00
2017-09-07T04:25:27.461Z,15.90
2017-09-07T04:26:27.410Z,16.80
2017-09-07T04:27:27.376Z,14.60
2017-09-07T04:28:27.347Z,13.60
2017-09-07T04:29:27.303Z,15.90
2017-09-07T04:30:27.265Z,14.60
2017-09-07T04:31:27.248Z,15.40
2017-09-07T04:32:27.203Z,15.50
2017-09-07T04:33:27.159Z,18.00
2017-09-07T04:34:27.124Z,12.90
2017-09-07T04:35:27.091Z,16.60
2017-09-07T04:36:27.057Z,14.80
2017-09-07T04:37:27.022Z,14.00
2017-09-07T04:38:26.984Z,14.00
2017-09-07T04:39:26.953Z,14.00
2017-09-07T04:40:26.912Z,16.00
2017-09-07T04:41:26.879Z,12.50
2017-09-07T04:42:26.848Z,14.70
2017-09-07T04:43:26.811Z,16.40
2017-09-07T04:44:26.775Z,16.50
2017-09-07T04:45:26.733Z,13.20
2017-09-07T04:46:26.703Z,12.10
2017-09-07T04:47:26.675Z,15.30
2017-09-07T04:48:26.633Z,15.60
2017-09-07T04:49:26.595Z,14.00
2017-09-07T04:50:26.559Z,15.50
2017-09-07T04:51:26.527Z,14.30
2017-09-07T04:52:26.488Z,12.10
2017-09-07T04:53:26.454Z,15.20
2017-09-07T04:54:26.431Z,15.40
2017-09-07T04:55:26.383Z,14.20
2017-09-07T04:56:26.354Z,16.80
2017-09-07T04:57:26.312Z,13.10
2017-09-07T04:58:26.275Z,15.60
2017-09-07T04:59:26.238Z,13.20
2017-09-07T05:00:26.203Z,14.80
2017-09-07T05:01:26.174Z,12.80
2017-09-07T05:02:26.133Z,15.50
2017-09-07T05:03:26.105Z,15.80
2017-09-07T05:04:26.065Z,11.40
2017-09-07T05:05:26.031Z,12.90
2017-09-07T05:06:25.991Z,15.30
2017-09-07T05:07:25.959Z,15.50
2017-09-07T05:08:25.929Z,15.40
2017-09-07T05:09:25.885Z,13.90
2017-09-07T05:10:25.859Z,12.80
2017-09-07T05:11:25.838Z,17.20
2017-09-07T05:12:25.790Z,14.20
2017-09-07T05:13:25.741Z,18.90
2017-09-07T05:14:25.717Z,17.90
2017-09-07T05:15:25.685Z,16.30
2017-09-07T05:16:25.647Z,17.20
2017-09-07T05:17:25.608Z,12.60
2017-09-07T05:18:25.573Z,16.10
2017-09-07T05:19:25.536Z,16.60
2017-09-07T05:20:25.504Z,13.00
2017-09-07T05:21:25.465Z,18.00
2017-09-07T05:22:25.434Z,15.70
2017-09-07T05:23:25.401Z,14.90
2017-09-07T05:24:25.370Z,12.10
2017-09-07T05:25:25.326Z,11.60
2017-09-07T05:26:25.292Z,16.90
2017-09-07T05:27:25.258Z,16.00
2017-09-07T05:28:25.227Z,18.20
2017-09-07T05:29:25.192Z,14.10
2017-09-07T05:30:25.158Z,15.40
2017-09-07T05:31:25.116Z,15.70
2017-09-07T05:32:25.082Z,14.70
2017-09-07T05:33:25.052Z,14.00
2017-09-07T05:34:25.012Z,17.10
2017-09-07T05:35:24.982Z,16.70
2017-09-07T05:36:24.944Z,15.00
2017-09-07T05:37:24.909Z,16.20
2017-09-07T05:38:24.881Z,13.30
2017-09-07T05:39:24.843Z,15.60
2017-09-07T05:40:24.809Z,18.50
2017-09-07T05:41:24.773Z,19.00
2017-09-07T05:42:24.742Z,19.50
2017-09-07T05:43:24.704Z,13.90
2017-09-07T05:44:24.672Z,16.00
2017-09-07T05:45:24.631Z,13.50
2017-09-07T05:46:24.607Z,14.70
2017-09-07T05:47:24.575Z,20.20
2017-09-07T05:48:24.533Z,15.20
2017-09-07T05:49:24.500Z,14.90
2017-09-07T05:50:24.465Z,21.20
2017-09-07T05:51:24.430Z,22.70
2017-09-07T05:52:24.394Z,18.10
2017-09-07T05:53:24.382Z,20.20
2017-09-07T05:54:24.341Z,16.00
2017-09-07T05:55:24.302Z,19.50
2017-09-07T05:56:24.260Z,21.60
2017-09-07T05:57:24.222Z,18.00
2017-09-07T05:58:24.190Z,21.30
2017-09-07T05:59:24.156Z,18.00
2017-09-07T06:00:24.124Z,14.40
2017-09-07T06:01:24.092Z,15.60
2017-09-07T06:02:24.062Z,15.40
2017-09-07T06:03:24.018Z,15.40
2017-09-07T06:04:23.982Z,16.80
2017-09-07T06:05:23.948Z,15.10
2017-09-07T06:06:23.911Z,15.00
2017-09-07T06:07:23.894Z,16.30
2017-09-07T06:08:23.854Z,15.00
2017-09-07T06:09:23.813Z,16.30
2017-09-07T06:10:23.778Z,13.80
2017-09-07T06:11:23.742Z,18.30
2017-09-07T06:12:23.722Z,16.00
2017-09-07T06:13:23.683Z,17.20
2017-09-07T06:14:23.645Z,19.20
2017-09-07T06:15:23.608Z,18.30
2017-09-07T06:16:23.569Z,16.90
2017-09-07T06:17:23.538Z,14.40
2017-09-07T06:18:23.510Z,16.20
2017-09-07T06:19:23.475Z,13.80
2017-09-07T06:20:23.439Z,13.40
2017-09-07T06:21:23.403Z,12.20
2017-09-07T06:22:23.368Z,15.80
2017-09-07T06:23:23.340Z,12.60
2017-09-07T06:24:23.300Z,13.30
2017-09-07T06:25:23.270Z,15.40
2017-09-07T06:26:23.235Z,15.50
2017-09-07T06:27:23.205Z,14.50
2017-09-07T06:28:23.168Z,14.90
2017-09-07T06:29:23.132Z,16.00
2017-09-07T06:30:23.101Z,16.10
2017-09-07T06:31:23.062Z,13.50
2017-09-07T06:32:23.032Z,14.90
2017-09-07T06:33:23.000Z,14.90
2017-09-07T06:34:22.968Z,15.70
2017-09-07T06:35:22.935Z,16.00
2017-09-07T06:36:22.899Z,14.30
2017-09-07T06:37:22.875Z,17.70
2017-09-07T06:38:22.842Z,17.90
2017-09-07T06:39:22.801Z,15.60
2017-09-07T06:40:22.763Z,17.20
2017-09-07T06:41:22.733Z,17.90
2017-09-07T06:42:22.708Z,19.80
2017-09-07T06:43:22.661Z,14.50
2017-09-07T06:44:22.625Z,17.60
2017-09-07T06:45:22.595Z,18.00
2017-09-07T06:46:22.588Z,18.20
2017-09-07T06:47:22.531Z,14.30
2017-09-07T06:48:22.495Z,13.20
2017-09-07T06:49:22.461Z,14.60
2017-09-07T06:50:22.431Z,15.70
2017-09-07T06:51:22.403Z,17.80
2017-09-07T06:52:22.443Z,13.30
2017-09-07T06:53:22.327Z,17.00
2017-09-07T06:54:22.300Z,16.50
2017-09-07T06:55:22.271Z,17.50
2017-09-07T06:56:22.234Z,16.90
2017-09-07T06:57:22.197Z,16.30
2017-09-07T06:58:22.160Z,11.10
2017-09-07T06:59:22.138Z,19.40
2017-09-07T07:00:22.094Z,13.00
2017-09-07T07:01:22.069Z,12.80
2017-09-07T07:02:22.027Z,15.00
2017-09-07T07:03:21.999Z,12.20
2017-09-07T07:04:21.962Z,17.50
2017-09-07T07:05:21.928Z,16.00
2017-09-07T07:06:21.896Z,18.50
2017-09-07T07:07:21.864Z,14.90
2017-09-07T07:08:21.832Z,16.60
2017-09-07T07:09:21.852Z,13.20
2017-09-07T07:10:21.790Z,15.40
2017-09-07T07:11:21.730Z,13.00
2017-09-07T07:12:21.695Z,14.70
2017-09-07T07:13:21.662Z,10.50
2017-09-07T07:14:21.645Z,10.60
2017-09-07T07:15:21.599Z,15.40
2017-09-07T07:16:21.561Z,17.70
2017-09-07T07:17:21.533Z,14.40
2017-09-07T07:18:21.498Z,13.60
2017-09-07T07:19:21.464Z,21.30
2017-09-07T07:20:21.431Z,15.60
2017-09-07T07:21:21.403Z,14.90
2017-09-07T07:22:21.365Z,15.20
2017-09-07T07:23:21.335Z,15.80
2017-09-07T07:24:21.304Z,18.20
2017-09-07T07:25:21.270Z,13.70
2017-09-07T07:26:21.239Z,14.20
2017-09-07T07:27:21.219Z,15.40
2017-09-07T07:28:21.180Z,12.00
2017-09-07T07:29:21.141Z,13.90
2017-09-07T07:30:21.117Z,13.10
2017-09-07T07:31:21.081Z,18.40
2017-09-07T07:32:21.040Z,18.70
2017-09-07T07:33:21.017Z,16.20
2017-09-07T07:34:20.979Z,16.00
2017-09-07T07:35:20.942Z,18.00
2017-09-07T07:36:20.914Z,12.60
2017-09-07T07:37:20.882Z,14.90
2017-09-07T07:38:20.868Z,13.30
2017-09-07T07:39:20.820Z,13.70
2017-09-07T07:40:20.784Z,14.70
2017-09-07T07:41:20.747Z,14.40
2017-09-07T07:42:20.732Z,10.50
2017-09-07T07:43:20.755Z,12.40
2017-09-07T07:44:20.652Z,13.80
2017-09-07T07:45:20.623Z,12.60
2017-09-07T07:46:20.639Z,13.80
2017-09-07T07:47:20.557Z,12.20
2017-09-07T07:48:20.527Z,18.20
2017-09-07T07:49:20.505Z,12.40
2017-09-07T07:50:20.469Z,13.40
2017-09-07T07:51:20.428Z,12.10
2017-09-07T07:52:20.393Z,16.20
2017-09-07T07:53:20.376Z,13.20
2017-09-07T07:54:20.334Z,14.00
2017-09-07T07:55:20.304Z,11.60
2017-09-07T07:56:20.276Z,13.20
2017-09-07T07:57:20.243Z,12.10
2017-09-07T07:58:20.214Z,14.60
2017-09-07T07:59:20.186Z,15.10
2017-09-07T08:00:20.152Z,12.40
2017-09-07T08:01:20.118Z,15.50
2017-09-07T08:02:20.084Z,14.70
2017-09-07T08:03:20.061Z,15.30
2017-09-07T08:04:20.016Z,13.50
2017-09-07T08:05:19.990Z,10.70
2017-09-07T08:06:19.959Z,13.40
2017-09-07T08:07:19.926Z,14.60
2017-09-07T08:08:19.892Z,13.30
2017-09-07T08:09:19.862Z,13.60
2017-09-07T08:10:19.832Z,13.90
2017-09-07T08:11:19.833Z,9.60
2017-09-07T08:12:19.772Z,12.10
2017-09-07T08:13:19.744Z,16.00
2017-09-07T08:14:19.711Z,16.80
2017-09-07T08:15:19.677Z,14.10
2017-09-07T08:16:19.645Z,9.80
2017-09-07T08:17:19.614Z,13.90
2017-09-07T08:18:19.584Z,11.60
2017-09-07T08:19:19.560Z,11.50
2017-09-07T08:20:19.522Z,9.20
2017-09-07T08:21:19.488Z,15.90
2017-09-07T08:22:19.477Z,11.70
2017-09-07T08:23:19.424Z,9.80
2017-09-07T08:24:19.395Z,12.50
2017-09-07T08:25:19.371Z,8.60
2017-09-07T08:26:19.332Z,14.50
2017-09-07T08:27:19.303Z,15.40
2017-09-07T08:28:19.277Z,11.00
2017-09-07T08:29:19.242Z,14.00
2017-09-07T08:30:19.218Z,13.40
2017-09-07T08:31:19.186Z,12.60
2017-09-07T08:32:19.149Z,13.70
2017-09-07T08:33:19.124Z,10.30
2017-09-07T08:34:19.092Z,12.60
2017-09-07T08:35:19.062Z,15.50
2017-09-07T08:36:19.032Z,12.60
2017-09-07T08:37:19.005Z,14.50
2017-09-07T08:38:18.966Z,13.40
2017-09-07T08:39:18.951Z,12.30
2017-09-07T08:40:18.912Z,14.10
2017-09-07T08:41:18.876Z,9.00
2017-09-07T08:42:18.842Z,13.70
2017-09-07T08:43:18.809Z,15.90
2017-09-07T08:44:18.783Z,14.00
2017-09-07T08:45:18.792Z,13.40
2017-09-07T08:46:18.732Z,13.10
2017-09-07T08:47:18.687Z,13.50
2017-09-07T08:48:18.662Z,10.80
2017-09-07T08:49:18.637Z,9.70
2017-09-07T08:50:18.608Z,10.90
2017-09-07T08:51:18.571Z,17.30
2017-09-07T08:52:18.544Z,13.10
2017-09-07T08:53:18.504Z,11.40
2017-09-07T08:54:18.472Z,14.00
2017-09-07T08:55:18.455Z,10.40
2017-09-07T08:56:18.410Z,11.30
2017-09-07T08:57:18.378Z,11.00
2017-09-07T08:58:18.353Z,12.30
2017-09-07T08:59:18.324Z,12.20
2017-09-07T09:00:18.298Z,12.00
2017-09-07T09:01:18.266Z,16.40
2017-09-07T09:02:18.228Z,16.00
2017-09-07T09:03:18.196Z,13.50
2017-09-07T09:04:18.182Z,10.40
2017-09-07T09:05:18.137Z,13.90
2017-09-07T09:06:18.101Z,18.20
2017-09-07T09:07:18.072Z,16.60
2017-09-07T09:08:18.066Z,12.70
2017-09-07T09:09:18.010Z,10.40
2017-09-07T09:10:17.985Z,10.90
2017-09-07T09:11:17.952Z,12.30
2017-09-07T09:12:17.919Z,10.10
2017-09-07T09:13:17.891Z,10.50
2017-09-07T09:14:17.869Z,10.10
2017-09-07T09:15:17.821Z,11.30
2017-09-07T09:16:17.832Z,10.30
2017-09-07T09:17:17.766Z,10.40
2017-09-07T09:18:17.731Z,8.40
2017-09-07T09:19:17.738Z,13.60
2017-09-07T09:20:17.669Z,16.40
2017-09-07T09:21:17.634Z,12.90
2017-09-07T09:22:17.610Z,11.40
2017-09-07T09:23:17.569Z,12.40
2017-09-07T09:24:17.540Z,12.30
2017-09-07T09:25:17.508Z,10.20
2017-09-07T09:26:17.487Z,7.40
2017-09-07T09:27:17.444Z,14.70
2017-09-07T09:28:17.420Z,11.50
2017-09-07T09:29:17.383Z,13.20
2017-09-07T09:30:17.360Z,16.50
2017-09-07T09:31:17.318Z,13.30
2017-09-07T09:32:17.289Z,16.50
2017-09-07T09:33:17.259Z,16.10
2017-09-07T09:34:17.231Z,13.60
2017-09-07T09:35:17.199Z,13.00
2017-09-07T09:36:17.166Z,11.10
2017-09-07T09:37:17.136Z,12.90
2017-09-07T09:38:17.107Z,12.20
2017-09-07T09:39:17.071Z,11.30
2017-09-07T09:40:17.040Z,10.40
2017-09-07T09:41:17.007Z,14.00
2017-09-07T09:42:16.977Z,14.80
2017-09-07T09:43:16.966Z,10.50
2017-09-07T09:44:16.922Z,8.40
2017-09-07T09:45:16.890Z,11.00
2017-09-07T09:46:16.854Z,11.80
2017-09-07T09:47:16.823Z,8.90
2017-09-07T09:48:16.794Z,8.70
2017-09-07T09:49:16.768Z,9.80
2017-09-07T09:50:16.727Z,8.50
2017-09-07T09:51:16.703Z,10.00
2017-09-07T09:52:16.681Z,12.10
2017-09-07T09:53:16.632Z,9.50
2017-09-07T09:54:16.626Z,12.20
2017-09-07T09:55:16.580Z,12.00
2017-09-07T09:56:16.548Z,13.00
2017-09-07T09:57:16.518Z,10.10
2017-09-07T09:58:16.477Z,11.70
2017-09-07T09:59:16.445Z,10.00
2017-09-07T10:00:16.410Z,13.10
2017-09-07T10:01:16.381Z,13.20
2017-09-07T10:02:16.353Z,10.90
2017-09-07T10:03:16.324Z,8.70
2017-09-07T10:04:16.288Z,11.00
2017-09-07T10:05:16.256Z,9.20
2017-09-07T10:06:16.227Z,10.10
2017-09-07T10:07:16.205Z,9.50
2017-09-07T10:08:16.170Z,10.10
2017-09-07T10:09:16.129Z,8.70
2017-09-07T10:10:16.107Z,9.90
2017-09-07T10:11:16.064Z,11.30
2017-09-07T10:12:16.054Z,10.70
2017-09-07T10:13:16.005Z,10.40
2017-09-07T10:14:15.974Z,11.20
2017-09-07T10:15:15.958Z,7.80
2017-09-07T10:16:15.912Z,11.30
2017-09-07T10:17:15.884Z,8.80
2017-09-07T10:18:15.855Z,7.90
2017-09-07T10:19:15.825Z,9.20
2017-09-07T10:20:15.788Z,8.20
2017-09-07T10:21:15.838Z,10.80
2017-09-07T10:22:15.726Z,6.30
2017-09-07T10:23:15.703Z,11.30
2017-09-07T10:24:15.664Z,8.60
2017-09-07T10:25:15.644Z,8.30
2017-09-07T10:26:15.609Z,9.10
2017-09-07T10:27:15.567Z,9.40
2017-09-07T10:28:15.541Z,10.90
2017-09-07T10:29:15.511Z,8.90
2017-09-07T10:30:15.479Z,10.20
2017-09-07T10:31:15.451Z,12.40
2017-09-07T10:32:15.422Z,10.80
2017-09-07T10:33:15.379Z,11.40
2017-09-07T10:34:15.355Z,10.00
2017-09-07T10:35:15.319Z,8.20
2017-09-07T10:36:15.285Z,10.00
2017-09-07T10:37:15.253Z,11.20
2017-09-07T10:38:15.218Z,9.20
2017-09-07T10:39:15.186Z,9.50
2017-09-07T10:40:15.156Z,9.90
2017-09-07T10:41:15.124Z,8.40
2017-09-07T10:42:15.096Z,9.60
2017-09-07T10:43:15.066Z,9.70
2017-09-07T10:44:15.031Z,7.40
2017-09-07T10:45:15.009Z,7.80
2017-09-07T10:46:14.974Z,7.20
2017-09-07T10:47:14.944Z,10.20
2017-09-07T10:48:14.911Z,7.10
2017-09-07T10:49:14.876Z,9.90
2017-09-07T10:50:14.845Z,12.40
2017-09-07T10:51:14.818Z,8.30
2017-09-07T10:52:14.783Z,10.60
2017-09-07T10:53:14.765Z,8.70
2017-09-07T10:54:14.738Z,8.60
2017-09-07T10:55:14.691Z,7.30
2017-09-07T10:56:14.666Z,12.40
2017-09-07T10:57:14.638Z,7.60
2017-09-07T10:58:14.601Z,10.60
2017-09-07T10:59:14.569Z,10.00
2017-09-07T11:00:14.535Z,11.10
2017-09-07T11:01:14.513Z,7.20
2017-09-07T11:02:14.472Z,8.80
2017-09-07T11:03:15.433Z,11.50
2017-09-07T11:04:14.420Z,12.00
2017-09-07T11:05:14.379Z,9.60
2017-09-07T11:06:14.359Z,13.80
2017-09-07T11:07:14.322Z,8.90
2017-09-07T11:08:14.289Z,9.10
2017-09-07T11:09:14.266Z,9.10
2017-09-07T11:10:14.230Z,10.50
2017-09-07T11:11:14.206Z,11.10
2017-09-07T11:12:14.193Z,9.20
2017-09-07T11:13:14.148Z,11.40
2017-09-07T11:14:14.113Z,10.90
2017-09-07T11:15:14.086Z,9.40
2017-09-07T11:16:14.042Z,11.90
2017-09-07T11:17:14.016Z,12.10
2017-09-07T11:18:13.983Z,14.20
2017-09-07T11:19:13.986Z,11.50
2017-09-07T11:20:13.935Z,10.80
2017-09-07T11:21:13.889Z,9.70
2017-09-07T11:22:13.860Z,7.00
2017-09-07T11:23:13.831Z,10.70
2017-09-07T11:24:13.798Z,9.70
2017-09-07T11:25:13.767Z,12.60
2017-09-07T11:26:13.736Z,10.40
2017-09-07T11:27:13.708Z,9.00
2017-09-07T11:28:13.680Z,8.40
2017-09-07T11:29:13.646Z,13.20
2017-09-07T11:30:13.615Z,9.60
2017-09-07T11:31:13.583Z,9.00
2017-09-07T11:32:13.554Z,12.10
2017-09-07T11:33:13.525Z,12.00
2017-09-07T11:34:13.498Z,11.30
2017-09-07T11:35:13.460Z,11.40
2017-09-07T11:36:13.431Z,8.70
2017-09-07T11:37:13.398Z,12.20
2017-09-07T11:38:13.366Z,8.70
2017-09-07T11:39:13.340Z,13.70
2017-09-07T11:40:13.354Z,11.80
2017-09-07T11:41:13.270Z,9.00
2017-09-07T11:42:13.248Z,12.30
2017-09-07T11:43:13.212Z,11.00
2017-09-07T11:44:13.185Z,8.70
2017-09-07T11:45:13.150Z,8.50
2017-09-07T11:46:13.117Z,10.60
2017-09-07T11:47:13.097Z,6.50
2017-09-07T11:48:13.052Z,8.80
2017-09-07T11:49:13.021Z,6.60
2017-09-07T11:50:12.988Z,6.80
2017-09-07T11:51:12.955Z,11.80
2017-09-07T11:52:12.922Z,10.90
2017-09-07T11:53:12.903Z,11.30
2017-09-07T11:54:12.872Z,11.10
2017-09-07T11:55:12.841Z,9.60
2017-09-07T11:56:12.806Z,10.90
2017-09-07T11:57:12.766Z,11.90
2017-09-07T11:58:12.737Z,10.70
2017-09-07T11:59:12.714Z,12.10
2017-09-07T12:00:12.674Z,9.80
2017-09-07T12:01:12.641Z,9.00
2017-09-07T12:02:12.624Z,8.30
2017-09-07T12:03:12.587Z,9.60
2017-09-07T12:04:12.565Z,10.50
2017-09-07T12:05:12.518Z,10.80
2017-09-07T12:06:12.518Z,10.70
2017-09-07T12:07:12.460Z,8.40
2017-09-07T12:08:12.428Z,11.20
2017-09-07T12:09:12.412Z,8.70
2017-09-07T12:10:12.364Z,8.10
2017-09-07T12:11:12.342Z,7.90
2017-09-07T12:12:12.314Z,7.60
2017-09-07T12:13:12.287Z,11.20
2017-09-07T12:14:12.266Z,8.40
2017-09-07T12:15:12.211Z,8.20
2017-09-07T12:16:12.190Z,12.80
2017-09-07T12:17:12.149Z,6.50
2017-09-07T12:18:12.128Z,7.20
2017-09-07T12:19:12.123Z,9.50
2017-09-07T12:20:12.063Z,7.10
2017-09-07T12:21:12.030Z,7.00
2017-09-07T12:22:12.001Z,8.90
2017-09-07T12:23:11.969Z,8.70
2017-09-07T12:24:11.946Z,10.10
2017-09-07T12:25:11.911Z,8.20
2017-09-07T12:26:11.888Z,11.90
2017-09-07T12:27:11.852Z,7.70
2017-09-07T12:28:11.832Z,9.20
2017-09-07T12:29:11.784Z,7.70
2017-09-07T12:30:11.753Z,13.20
2017-09-07T12:31:11.780Z,11.50
2017-09-07T12:32:11.694Z,7.10
2017-09-07T12:33:11.702Z,7.70
2017-09-07T12:34:11.629Z,8.70
2017-09-07T12:35:11.602Z,9.20
2017-09-07T12:36:11.585Z,8.10
2017-09-07T12:37:11.548Z,6.80
2017-09-07T12:38:11.516Z,6.70
2017-09-07T12:39:11.496Z,7.50
2017-09-07T12:40:11.470Z,6.60
2017-09-07T12:41:11.429Z,7.50
2017-09-07T12:42:11.397Z,10.80
2017-09-07T12:43:11.375Z,5.90
2017-09-07T12:44:11.341Z,10.70
2017-09-07T12:45:11.310Z,8.70
2017-09-07T12:46:11.278Z,6.50
2017-09-07T12:47:11.246Z,7.10
2017-09-07T12:48:11.220Z,6.40
2017-09-07T12:49:11.191Z,8.10
2017-09-07T12:50:11.158Z,6.90
2017-09-07T12:51:11.127Z,5.90
2017-09-07T12:52:11.116Z,4.60
2017-09-07T12:53:11.067Z,7.00
2017-09-07T12:54:11.039Z,6.50
2017-09-07T12:55:11.013Z,8.00
2017-09-07T12:56:10.986Z,8.30
2017-09-07T12:57:10.956Z,10.40
2017-09-07T12:58:10.937Z,6.20
2017-09-07T12:59:10.890Z,6.60
2017-09-07T13:00:10.859Z,10.80